AirNav   Pilot Hours Calculator
 
 828 users online  

73WA 7 Bays Airport
Davenport, Washington, USA

GOING TO DAVENPORT?


FAA INFORMATION EFFECTIVE 12 SEPTEMBER 2019

Location

FAA Identifier: 73WA
Lat/Long: 47-51-03.5680N 118-19-48.9560W
47-51.059467N 118-19.815933W
47.8509911,-118.3302656
(estimated)
Elevation: 1580 ft. / 481.6 m (surveyed)
Variation: 20E (1985)
From city: 13 miles NW of DAVENPORT, WA
Time zone: UTC -7 (UTC -8 during Standard Time)
Zip code: 99122

Airport Operations

Airport use: Private use. Permission required prior to landing
Activation date: 08/1978
Control tower: no
ARTCC: SEATTLE CENTER
FSS: SEATTLE FLIGHT SERVICE STATION
Attendance: MON-SAT 0800-1700
Wind indicator: yes, WIND INDICATOR BOTH ENDS OF RUNWAY.
Segmented circle: no

Airport Communications

WX AWOS-2 at 2S8 (18 nm W): 124.175 (509-647-0337)

Nearby radio navigation aids

VOR radial/distance  VOR name  Freq  Var
GEGr280/33.2SPOKANE VORTAC115.5021E

 
NDB name  Hdg/Dist  Freq  Var  ID
DEER PARK243/37.036516EDPY -.. .--. -.--

Airport Services

Airframe service: MAJOR
Powerplant service: MAJOR

Runway Information

Runway 18/36

Dimensions: 2600 x 60 ft. / 792 x 18 m
Surface: turf
RUNWAY 18  RUNWAY 36
Traffic pattern: rightleft

Airport Ownership and Management from official FAA records

Ownership: Privately-owned
Owner: 7 BAYS HOMEOWNERS ASSOC
7 BAYS
DAVENPORT, WA 99122
Phone 509-725-1674
Manager: LOREN LEMEN
7 BAYS
DAVENPORT, WA 99122
Phone 509-725-1674

Airport Operational Statistics

Aircraft based on the field: 11
Single engine airplanes: 10
Ultralights: 1
  • ULTRALIGHT ACTIVITY ON AND IN VICINITY OF ARPT.
    

Additional Remarks

TURN LEFT TO NORTH & RIGHT TO SOUTH AFTER TAKEOFF
TERRAIN RISES TO NORTH.
FOR CD CTC SEATTLE ARTCC AT 253-351-3694.

Instrument Procedures

There are no published instrument procedures at 73WA.

Some nearby airports with instrument procedures:

2S8 - Wilbur Airport (18 nm W)
KSKA - Fairchild Air Force Base (31 nm SE)
KGEG - Spokane International Airport (35 nm SE)
KDEW - Deer Park Airport (37 nm E)
KSFF - Felts Field Airport (42 nm E)
 
Loc | Ops | Rwys | IFR | FBO | Links
Com | Nav | Svcs | Stats | Notes
Area around 73WA (7 Bays Airport)
 
Road maps at: MapQuest Bing Google
 
Aerial photo
WARNING: Photo may not be current or correct
Aerial photo of 73WA (7 Bays Airport)
Do you have a better or more recent aerial photo of 7 Bays Airport that you would like to share? If so, please send us your photo.

 
Sectional chart

 
Airport distance calculator
Flying to 7 Bays Airport? Find the distance to fly.

From to 73WA

Sunrise and sunset
Times for 15-Sep-2019
 Local
(UTC-7)
 Zulu
(UTC)
Morning civil twilight06:0013:00
Sunrise06:3213:32
Sunset19:0502:05
Evening civil twilight19:3702:37

Current date and time
Zulu (UTC)  15-Sep-2019 13:44:26
Local (UTC-7)  15-Sep-2019 06:44:26
 
METAR
KSKA 
31nm SE 
151258Z 10003KT 10SM CLR 09/07 A2976 RMK AO2A SLP074 T00940065 $
KGEG 
35nm SE 
151253Z 17003KT 10SM FEW080 FEW110 FEW160 11/06 A2977 RMK AO2 SLP073 T01110056
KDEW 
37nm E 
151340Z AUTO 3/4SM BR VV002 06/06 A2977 RMK AO2 T00610056 $
KSFF 
42nm E 
151253Z 00000KT 10SM CLR 11/09 A2978 RMK AO2 SLP075 T01060089
TAF
KSKA 
31nm SE 
151100Z 1511/1617 18006KT 9999 FEW100 QNH2982INS BECMG 1517/1518 21012G20KT 9999 BKN080 OVC100 QNH2979INS BECMG 1601/1602 23009KT 9999 VCSH BKN050 OVC080 QNH2973INS BECMG 1610/1611 22012KT 9000 -SHRA BKN010 OVC050 QNH2979INS TX22/1521Z TN09/1512Z
KGEG 
35nm SE 
151135Z 1512/1612 17006KT P6SM SCT250 FM151800 21010KT P6SM SCT250 FM152100 23012G19KT P6SM FEW100 SCT250 FM160100 24006KT P6SM VCSH OVC100
NOTAMs
Click for the latest NOTAMs
NOTAMs are issued by the DoD/FAA and will open in a separate window not controlled by AirNav.

 

 
 

Would you like to see your business listed on this page?

 If your business provides an interesting product or service to pilots, flight crews, aircraft, or users of the 7 Bays Airport, you should consider listing it here.  To start the listing process, click on the button below
 
Add a business
 

Other Pages about 7 Bays Airport

Update a link
 
Copyright © AirNav, LLC. All rights reserved. Privacy Policy  Contact